sensor_id;sensor_type;location;lat;lon;timestamp;pressure;altitude;pressure_sealevel;temperature;humidity
64521;BME280;50896;46.714;17.322;2023-10-09T00:02:08;101509.28;;;13.03;100.00
64521;BME280;50896;46.714;17.322;2023-10-09T00:04:39;101511.13;;;13.03;100.00
64521;BME280;50896;46.714;17.322;2023-10-09T00:07:12;101502.63;;;12.89;100.00
64521;BME280;50896;46.714;17.322;2023-10-09T00:09:39;101501.03;;;12.78;100.00
64521;BME280;50896;46.714;17.322;2023-10-09T00:12:19;101500.63;;;12.73;100.00
64521;BME280;50896;46.714;17.322;2023-10-09T00:14:50;101505.50;;;12.78;100.00
64521;BME280;50896;46.714;17.322;2023-10-09T00:17:17;101506.13;;;12.72;100.00
64521;BME280;50896;46.714;17.322;2023-10-09T00:19:48;101508.09;;;12.70;100.00
64521;BME280;50896;46.714;17.322;2023-10-09T00:22:19;101517.94;;;12.69;100.00
64521;BME280;50896;46.714;17.322;2023-10-09T00:24:56;101516.09;;;12.70;100.00
64521;BME280;50896;46.714;17.322;2023-10-09T00:27:40;101519.78;;;12.69;100.00
64521;BME280;50896;46.714;17.322;2023-10-09T00:30:14;101513.34;;;12.61;100.00
64521;BME280;50896;46.714;17.322;2023-10-09T00:32:57;101499.78;;;12.55;100.00
64521;BME280;50896;46.714;17.322;2023-10-09T00:35:38;101502.34;;;12.46;100.00
64521;BME280;50896;46.714;17.322;2023-10-09T00:38:10;101485.88;;;12.51;100.00
64521;BME280;50896;46.714;17.322;2023-10-09T00:40:57;101504.03;;;12.47;100.00
64521;BME280;50896;46.714;17.322;2023-10-09T00:43:33;101505.94;;;12.55;100.00
64521;BME280;50896;46.714;17.322;2023-10-09T00:46:04;101517.97;;;12.59;100.00
64521;BME280;50896;46.714;17.322;2023-10-09T00:48:39;101524.50;;;12.47;100.00
64521;BME280;50896;46.714;17.322;2023-10-09T00:51:07;101508.69;;;12.36;100.00
64521;BME280;50896;46.714;17.322;2023-10-09T00:53:48;101506.38;;;12.23;100.00
64521;BME280;50896;46.714;17.322;2023-10-09T00:56:20;101496.81;;;12.20;100.00
64521;BME280;50896;46.714;17.322;2023-10-09T00:58:55;101503.13;;;12.19;100.00
64521;BME280;50896;46.714;17.322;2023-10-09T01:01:27;101512.00;;;12.20;100.00
64521;BME280;50896;46.714;17.322;2023-10-09T01:04:24;101518.41;;;12.27;100.00
64521;BME280;50896;46.714;17.322;2023-10-09T01:06:56;101524.72;;;12.26;100.00
64521;BME280;50896;46.714;17.322;2023-10-09T01:09:42;101501.03;;;12.23;100.00
64521;BME280;50896;46.714;17.322;2023-10-09T01:12:12;101505.53;;;12.12;100.00
64521;BME280;50896;46.714;17.322;2023-10-09T01:14:46;101498.28;;;12.05;100.00
64521;BME280;50896;46.714;17.322;2023-10-09T01:17:19;101484.22;;;12.12;100.00
64521;BME280;50896;46.714;17.322;2023-10-09T01:19:56;101476.81;;;12.06;100.00
64521;BME280;50896;46.714;17.322;2023-10-09T01:22:24;101488.06;;;12.00;100.00
64521;BME280;50896;46.714;17.322;2023-10-09T01:24:51;101494.69;;;11.96;100.00
64521;BME280;50896;46.714;17.322;2023-10-09T01:27:22;101487.22;;;12.00;100.00
64521;BME280;50896;46.714;17.322;2023-10-09T01:29:52;101488.75;;;12.02;100.00
64521;BME280;50896;46.714;17.322;2023-10-09T01:32:19;101490.19;;;11.96;100.00
64521;BME280;50896;46.714;17.322;2023-10-09T01:34:47;101476.19;;;11.94;100.00
64521;BME280;50896;46.714;17.322;2023-10-09T01:37:21;101470.25;;;12.01;100.00
64521;BME280;50896;46.714;17.322;2023-10-09T01:39:58;101467.59;;;12.01;100.00
64521;BME280;50896;46.714;17.322;2023-10-09T01:42:26;101462.09;;;11.92;100.00
64521;BME280;50896;46.714;17.322;2023-10-09T01:45:12;101451.03;;;11.87;100.00
64521;BME280;50896;46.714;17.322;2023-10-09T01:47:54;101459.59;;;11.91;100.00
64521;BME280;50896;46.714;17.322;2023-10-09T01:50:25;101457.22;;;11.88;100.00
64521;BME280;50896;46.714;17.322;2023-10-09T01:52:58;101460.56;;;11.90;100.00
64521;BME280;50896;46.714;17.322;2023-10-09T01:55:30;101465.63;;;11.83;100.00
64521;BME280;50896;46.714;17.322;2023-10-09T01:58:07;101462.69;;;11.86;100.00
64521;BME280;50896;46.714;17.322;2023-10-09T02:00:50;101462.97;;;11.83;100.00
64521;BME280;50896;46.714;17.322;2023-10-09T02:03:24;101445.84;;;11.86;100.00
64521;BME280;50896;46.714;17.322;2023-10-09T02:05:52;101441.28;;;11.78;100.00
64521;BME280;50896;46.714;17.322;2023-10-09T02:08:27;101442.50;;;11.84;100.00
64521;BME280;50896;46.714;17.322;2023-10-09T02:11:02;101443.75;;;11.89;100.00
64521;BME280;50896;46.714;17.322;2023-10-09T02:13:30;101452.88;;;11.96;100.00
64521;BME280;50896;46.714;17.322;2023-10-09T02:15:58;101457.75;;;11.91;100.00
64521;BME280;50896;46.714;17.322;2023-10-09T02:18:55;101466.34;;;11.85;100.00
64521;BME280;50896;46.714;17.322;2023-10-09T02:21:34;101469.41;;;11.90;100.00
64521;BME280;50896;46.714;17.322;2023-10-09T02:24:07;101464.13;;;11.80;100.00
64521;BME280;50896;46.714;17.322;2023-10-09T02:26:37;101443.81;;;11.70;100.00
64521;BME280;50896;46.714;17.322;2023-10-09T02:29:26;101455.56;;;11.77;100.00
64521;BME280;50896;46.714;17.322;2023-10-09T02:31:53;101454.88;;;11.75;100.00
64521;BME280;50896;46.714;17.322;2023-10-09T02:34:28;101442.97;;;11.69;100.00
64521;BME280;50896;46.714;17.322;2023-10-09T02:36:56;101437.50;;;11.71;100.00
64521;BME280;50896;46.714;17.322;2023-10-09T02:39:32;101438.63;;;11.68;100.00
64521;BME280;50896;46.714;17.322;2023-10-09T02:42:04;101446.47;;;11.70;100.00
64521;BME280;50896;46.714;17.322;2023-10-09T02:44:53;101447.47;;;11.69;100.00
64521;BME280;50896;46.714;17.322;2023-10-09T02:47:21;101451.53;;;11.63;100.00
64521;BME280;50896;46.714;17.322;2023-10-09T02:49:56;101447.75;;;11.66;100.00
64521;BME280;50896;46.714;17.322;2023-10-09T02:52:33;101442.72;;;11.62;100.00
64521;BME280;50896;46.714;17.322;2023-10-09T02:55:07;101441.19;;;11.60;100.00
64521;BME280;50896;46.714;17.322;2023-10-09T02:57:49;101415.66;;;11.57;100.00
64521;BME280;50896;46.714;17.322;2023-10-09T03:00:19;101414.41;;;11.61;100.00
64521;BME280;50896;46.714;17.322;2023-10-09T03:02:55;101415.06;;;11.63;100.00
64521;BME280;50896;46.714;17.322;2023-10-09T03:05:25;101422.81;;;11.57;100.00
64521;BME280;50896;46.714;17.322;2023-10-09T03:07:55;101419.31;;;11.56;100.00
64521;BME280;50896;46.714;17.322;2023-10-09T03:10:23;101411.91;;;11.50;100.00
64521;BME280;50896;46.714;17.322;2023-10-09T03:12:50;101401.53;;;11.57;100.00
64521;BME280;50896;46.714;17.322;2023-10-09T03:15:19;101399.13;;;11.54;100.00
64521;BME280;50896;46.714;17.322;2023-10-09T03:17:46;101389.88;;;11.48;100.00
64521;BME280;50896;46.714;17.322;2023-10-09T03:20:16;101390.34;;;11.43;100.00
64521;BME280;50896;46.714;17.322;2023-10-09T03:22:45;101382.63;;;11.40;100.00
64521;BME280;50896;46.714;17.322;2023-10-09T03:25:14;101371.72;;;11.34;100.00
64521;BME280;50896;46.714;17.322;2023-10-09T03:27:44;101369.50;;;11.29;100.00
64521;BME280;50896;46.714;17.322;2023-10-09T03:30:15;101383.34;;;11.33;100.00
64521;BME280;50896;46.714;17.322;2023-10-09T03:32:54;101384.88;;;11.35;100.00
64521;BME280;50896;46.714;17.322;2023-10-09T03:35:22;101376.25;;;11.23;100.00
64521;BME280;50896;46.714;17.322;2023-10-09T03:37:57;101371.47;;;11.17;100.00
64521;BME280;50896;46.714;17.322;2023-10-09T03:40:28;101373.00;;;11.20;100.00
64521;BME280;50896;46.714;17.322;2023-10-09T03:42:55;101356.88;;;11.21;100.00
64521;BME280;50896;46.714;17.322;2023-10-09T03:45:21;101354.53;;;11.18;100.00
64521;BME280;50896;46.714;17.322;2023-10-09T03:47:54;101372.59;;;11.15;100.00
64521;BME280;50896;46.714;17.322;2023-10-09T03:50:28;101386.47;;;11.08;100.00
64521;BME280;50896;46.714;17.322;2023-10-09T03:53:05;101385.38;;;11.01;100.00
64521;BME280;50896;46.714;17.322;2023-10-09T03:55:38;101377.69;;;10.98;100.00
64521;BME280;50896;46.714;17.322;2023-10-09T03:58:06;101364.09;;;11.01;100.00
64521;BME280;50896;46.714;17.322;2023-10-09T04:00:34;101352.19;;;10.96;100.00
64521;BME280;50896;46.714;17.322;2023-10-09T04:03:12;101328.09;;;10.97;100.00
64521;BME280;50896;46.714;17.322;2023-10-09T04:05:41;101325.00;;;10.92;100.00
64521;BME280;50896;46.714;17.322;2023-10-09T04:08:10;101328.66;;;10.91;100.00
64521;BME280;50896;46.714;17.322;2023-10-09T04:10:42;101326.41;;;10.86;100.00
64521;BME280;50896;46.714;17.322;2023-10-09T04:13:11;101307.66;;;10.88;100.00
64521;BME280;50896;46.714;17.322;2023-10-09T04:15:43;101314.38;;;10.82;100.00
64521;BME280;50896;46.714;17.322;2023-10-09T04:18:10;101333.72;;;10.84;100.00
64521;BME280;50896;46.714;17.322;2023-10-09T04:20:47;101334.25;;;10.78;100.00
64521;BME280;50896;46.714;17.322;2023-10-09T04:23:34;101325.75;;;10.74;100.00
64521;BME280;50896;46.714;17.322;2023-10-09T04:26:03;101316.38;;;10.80;100.00
64521;BME280;50896;46.714;17.322;2023-10-09T04:28:40;101321.94;;;10.77;100.00
64521;BME280;50896;46.714;17.322;2023-10-09T04:31:08;101308.38;;;10.80;100.00
64521;BME280;50896;46.714;17.322;2023-10-09T04:33:35;101296.88;;;10.80;100.00
64521;BME280;50896;46.714;17.322;2023-10-09T04:36:09;101292.44;;;10.80;100.00
64521;BME280;50896;46.714;17.322;2023-10-09T04:38:49;101292.97;;;10.74;100.00
64521;BME280;50896;46.714;17.322;2023-10-09T04:41:31;101286.69;;;10.65;100.00
64521;BME280;50896;46.714;17.322;2023-10-09T04:44:19;101291.19;;;10.65;100.00
64521;BME280;50896;46.714;17.322;2023-10-09T04:46:50;101296.06;;;10.59;100.00
64521;BME280;50896;46.714;17.322;2023-10-09T04:49:40;101299.03;;;10.56;100.00
64521;BME280;50896;46.714;17.322;2023-10-09T04:52:30;101296.22;;;10.48;100.00
64521;BME280;50896;46.714;17.322;2023-10-09T04:54:58;101298.59;;;10.51;100.00
64521;BME280;50896;46.714;17.322;2023-10-09T04:57:44;101298.44;;;10.43;100.00
64521;BME280;50896;46.714;17.322;2023-10-09T05:00:18;101297.75;;;10.41;100.00
64521;BME280;50896;46.714;17.322;2023-10-09T05:02:57;101299.03;;;10.37;100.00
64521;BME280;50896;46.714;17.322;2023-10-09T05:05:34;101289.75;;;10.31;100.00
64521;BME280;50896;46.714;17.322;2023-10-09T05:11:01;101284.97;;;10.25;100.00
64521;BME280;50896;46.714;17.322;2023-10-09T05:13:35;101285.00;;;10.35;100.00
64521;BME280;50896;46.714;17.322;2023-10-09T05:16:12;101267.91;;;10.27;100.00
64521;BME280;50896;46.714;17.322;2023-10-09T05:18:46;101260.63;;;10.20;100.00
64521;BME280;50896;46.714;17.322;2023-10-09T05:21:29;101267.09;;;10.17;100.00
64521;BME280;50896;46.714;17.322;2023-10-09T05:24:00;101258.53;;;10.14;100.00
64521;BME280;50896;46.714;17.322;2023-10-09T05:26:43;101283.13;;;10.16;100.00
64521;BME280;50896;46.714;17.322;2023-10-09T05:29:25;101279.50;;;10.17;100.00
64521;BME280;50896;46.714;17.322;2023-10-09T05:31:55;101262.31;;;10.11;100.00
64521;BME280;50896;46.714;17.322;2023-10-09T05:34:26;101266.78;;;10.11;100.00
64521;BME280;50896;46.714;17.322;2023-10-09T05:37:21;101268.34;;;10.13;100.00
64521;BME280;50896;46.714;17.322;2023-10-09T05:40:05;101260.09;;;10.16;100.00
64521;BME280;50896;46.714;17.322;2023-10-09T05:42:46;101265.94;;;10.20;100.00
64521;BME280;50896;46.714;17.322;2023-10-09T05:45:25;101249.75;;;10.23;100.00
64521;BME280;50896;46.714;17.322;2023-10-09T05:48:11;101255.06;;;10.33;100.00
64521;BME280;50896;46.714;17.322;2023-10-09T05:50:41;101248.75;;;10.34;100.00
64521;BME280;50896;46.714;17.322;2023-10-09T05:53:22;101252.97;;;10.36;100.00
64521;BME280;50896;46.714;17.322;2023-10-09T05:56:18;101254.22;;;10.42;100.00
64521;BME280;50896;46.714;17.322;2023-10-09T05:59:04;101255.22;;;10.51;100.00
64521;BME280;50896;46.714;17.322;2023-10-09T06:01:49;101258.13;;;10.57;100.00
64521;BME280;50896;46.714;17.322;2023-10-09T06:04:34;101253.81;;;10.66;100.00
64521;BME280;50896;46.714;17.322;2023-10-09T06:07:21;101265.09;;;10.78;100.00
64521;BME280;50896;46.714;17.322;2023-10-09T06:10:08;101255.03;;;10.82;100.00
64521;BME280;50896;46.714;17.322;2023-10-09T06:12:45;101250.53;;;10.92;100.00
64521;BME280;50896;46.714;17.322;2023-10-09T06:15:17;101248.00;;;10.90;100.00
64521;BME280;50896;46.714;17.322;2023-10-09T06:17:59;101256.94;;;10.99;100.00
64521;BME280;50896;46.714;17.322;2023-10-09T06:20:49;101257.91;;;11.08;100.00
64521;BME280;50896;46.714;17.322;2023-10-09T06:23:36;101248.88;;;11.19;100.00
64521;BME280;50896;46.714;17.322;2023-10-09T06:26:22;101242.66;;;11.38;100.00
64521;BME280;50896;46.714;17.322;2023-10-09T06:28:52;101237.97;;;11.50;100.00
64521;BME280;50896;46.714;17.322;2023-10-09T06:31:38;101237.53;;;11.54;100.00
64521;BME280;50896;46.714;17.322;2023-10-09T06:34:28;101231.28;;;11.63;100.00
64521;BME280;50896;46.714;17.322;2023-10-09T06:37:02;101235.13;;;11.79;100.00
64521;BME280;50896;46.714;17.322;2023-10-09T06:39:44;101241.91;;;11.91;100.00
64521;BME280;50896;46.714;17.322;2023-10-09T06:42:17;101244.13;;;12.06;100.00
64521;BME280;50896;46.714;17.322;2023-10-09T06:45:15;101232.09;;;12.20;100.00
64521;BME280;50896;46.714;17.322;2023-10-09T06:47:50;101235.50;;;12.30;100.00
64521;BME280;50896;46.714;17.322;2023-10-09T06:50:35;101230.06;;;12.40;100.00
64521;BME280;50896;46.714;17.322;2023-10-09T06:53:21;101228.03;;;12.52;100.00
64521;BME280;50896;46.714;17.322;2023-10-09T06:55:53;101241.19;;;12.53;100.00
64521;BME280;50896;46.714;17.322;2023-10-09T06:58:31;101231.91;;;12.65;100.00
64521;BME280;50896;46.714;17.322;2023-10-09T07:01:09;101226.66;;;12.74;100.00
64521;BME280;50896;46.714;17.322;2023-10-09T07:03:55;101225.41;;;12.86;100.00
64521;BME280;50896;46.714;17.322;2023-10-09T07:06:37;101226.81;;;12.98;100.00
64521;BME280;50896;46.714;17.322;2023-10-09T07:09:04;101220.31;;;13.01;100.00
64521;BME280;50896;46.714;17.322;2023-10-09T07:11:35;101217.50;;;13.03;100.00
64521;BME280;50896;46.714;17.322;2023-10-09T07:14:20;101209.72;;;13.18;100.00
64521;BME280;50896;46.714;17.322;2023-10-09T07:19:28;101183.69;;;13.20;100.00
64521;BME280;50896;46.714;17.322;2023-10-09T07:22:02;101196.22;;;13.19;100.00
64521;BME280;50896;46.714;17.322;2023-10-09T07:24:42;101175.34;;;13.23;100.00
64521;BME280;50896;46.714;17.322;2023-10-09T07:27:17;101154.84;;;13.23;100.00
64521;BME280;50896;46.714;17.322;2023-10-09T07:29:45;101156.66;;;13.23;100.00
64521;BME280;50896;46.714;17.322;2023-10-09T07:32:15;101153.50;;;13.19;100.00
64521;BME280;50896;46.714;17.322;2023-10-09T07:34:54;101161.19;;;13.22;100.00
64521;BME280;50896;46.714;17.322;2023-10-09T07:37:25;101141.66;;;13.22;100.00
64521;BME280;50896;46.714;17.322;2023-10-09T07:39:57;101157.78;;;13.38;100.00
64521;BME280;50896;46.714;17.322;2023-10-09T07:42:25;101140.25;;;13.52;100.00
64521;BME280;50896;46.714;17.322;2023-10-09T07:45:08;101141.59;;;13.56;100.00
64521;BME280;50896;46.714;17.322;2023-10-09T07:47:47;101136.97;;;13.66;100.00
64521;BME280;50896;46.714;17.322;2023-10-09T07:50:35;101133.78;;;13.71;100.00
64521;BME280;50896;46.714;17.322;2023-10-09T07:53:08;101134.28;;;13.66;100.00
64521;BME280;50896;46.714;17.322;2023-10-09T07:55:53;101128.41;;;13.63;100.00
64521;BME280;50896;46.714;17.322;2023-10-09T07:58:33;101120.41;;;13.63;100.00
64521;BME280;50896;46.714;17.322;2023-10-09T08:01:13;101119.59;;;13.71;98.42
64521;BME280;50896;46.714;17.322;2023-10-09T08:03:49;101122.59;;;13.67;100.00
64521;BME280;50896;46.714;17.322;2023-10-09T08:06:29;101123.09;;;13.79;100.00
64521;BME280;50896;46.714;17.322;2023-10-09T08:09:06;101108.91;;;13.87;100.00
64521;BME280;50896;46.714;17.322;2023-10-09T08:11:49;101089.88;;;13.90;100.00
64521;BME280;50896;46.714;17.322;2023-10-09T08:14:34;101099.22;;;14.02;100.00
64521;BME280;50896;46.714;17.322;2023-10-09T08:17:01;101081.66;;;14.16;100.00
64521;BME280;50896;46.714;17.322;2023-10-09T08:19:55;101079.81;;;14.25;100.00
64521;BME280;50896;46.714;17.322;2023-10-09T08:22:29;101068.94;;;14.27;98.02
64521;BME280;50896;46.714;17.322;2023-10-09T08:24:57;101069.88;;;14.42;94.00
64521;BME280;50896;46.714;17.322;2023-10-09T08:27:28;101073.53;;;14.49;94.98
64521;BME280;50896;46.714;17.322;2023-10-09T08:30:06;101065.16;;;14.69;91.54
64521;BME280;50896;46.714;17.322;2023-10-09T08:32:49;101060.50;;;14.55;91.38
64521;BME280;50896;46.714;17.322;2023-10-09T08:35:38;101065.31;;;14.59;93.08
64521;BME280;50896;46.714;17.322;2023-10-09T08:38:18;101052.63;;;14.69;93.14
64521;BME280;50896;46.714;17.322;2023-10-09T08:40:51;101047.06;;;14.79;94.26
64521;BME280;50896;46.714;17.322;2023-10-09T08:43:26;101061.81;;;14.98;91.44
64521;BME280;50896;46.714;17.322;2023-10-09T08:45:56;101047.09;;;15.02;90.03
64521;BME280;50896;46.714;17.322;2023-10-09T08:48:30;101040.09;;;15.01;91.91
64521;BME280;50896;46.714;17.322;2023-10-09T08:50:57;101031.69;;;15.04;87.96
64521;BME280;50896;46.714;17.322;2023-10-09T08:53:24;101031.34;;;15.08;85.62
64521;BME280;50896;46.714;17.322;2023-10-09T08:55:54;101019.22;;;14.89;87.07
64521;BME280;50896;46.714;17.322;2023-10-09T08:58:24;101011.38;;;14.87;86.94
64521;BME280;50896;46.714;17.322;2023-10-09T09:00:59;101011.84;;;14.91;86.48
64521;BME280;50896;46.714;17.322;2023-10-09T09:03:38;101010.69;;;14.93;88.00
64521;BME280;50896;46.714;17.322;2023-10-09T09:06:05;101012.00;;;14.97;90.57
64521;BME280;50896;46.714;17.322;2023-10-09T09:08:33;101000.56;;;15.03;92.88
64521;BME280;50896;46.714;17.322;2023-10-09T09:11:07;100994.16;;;15.13;88.50
64521;BME280;50896;46.714;17.322;2023-10-09T09:16:23;100999.31;;;15.37;87.87
64521;BME280;50896;46.714;17.322;2023-10-09T09:19:05;100980.91;;;15.34;88.09
64521;BME280;50896;46.714;17.322;2023-10-09T09:21:36;100998.41;;;15.45;88.05
64521;BME280;50896;46.714;17.322;2023-10-09T09:24:09;100985.50;;;15.49;85.06
64521;BME280;50896;46.714;17.322;2023-10-09T09:27:00;100985.06;;;15.60;87.07
64521;BME280;50896;46.714;17.322;2023-10-09T09:32:05;100983.59;;;15.72;80.92
64521;BME280;50896;46.714;17.322;2023-10-09T09:34:49;100972.88;;;15.72;78.02
64521;BME280;50896;46.714;17.322;2023-10-09T09:37:24;100980.91;;;15.72;80.16
64521;BME280;50896;46.714;17.322;2023-10-09T09:40:02;100975.69;;;15.79;78.35
64521;BME280;50896;46.714;17.322;2023-10-09T09:42:48;100955.91;;;15.80;78.31
64521;BME280;50896;46.714;17.322;2023-10-09T09:45:16;100953.56;;;15.77;77.94
64521;BME280;50896;46.714;17.322;2023-10-09T09:47:50;100960.47;;;15.80;79.94
64521;BME280;50896;46.714;17.322;2023-10-09T09:50:21;100950.03;;;15.77;78.28
64521;BME280;50896;46.714;17.322;2023-10-09T09:52:56;100939.50;;;15.75;80.02
64521;BME280;50896;46.714;17.322;2023-10-09T09:55:34;100930.78;;;15.81;77.07
64521;BME280;50896;46.714;17.322;2023-10-09T09:58:13;100925.13;;;15.91;75.71
64521;BME280;50896;46.714;17.322;2023-10-09T10:00:52;100926.63;;;15.94;75.86
64521;BME280;50896;46.714;17.322;2023-10-09T10:03:31;100937.88;;;16.04;75.10
64521;BME280;50896;46.714;17.322;2023-10-09T10:06:02;100922.91;;;16.10;74.91
64521;BME280;50896;46.714;17.322;2023-10-09T10:08:36;100921.50;;;16.14;77.75
64521;BME280;50896;46.714;17.322;2023-10-09T10:11:06;100916.63;;;16.17;75.94
64521;BME280;50896;46.714;17.322;2023-10-09T10:16:10;100913.88;;;16.47;72.82
64521;BME280;50896;46.714;17.322;2023-10-09T10:18:54;100912.19;;;16.46;69.70
64521;BME280;50896;46.714;17.322;2023-10-09T10:21:27;100913.41;;;16.44;70.18
64521;BME280;50896;46.714;17.322;2023-10-09T10:29:45;100900.25;;;16.49;76.54
64521;BME280;50896;46.714;17.322;2023-10-09T10:32:12;100885.78;;;16.65;76.46
64521;BME280;50896;46.714;17.322;2023-10-09T10:40:11;100870.78;;;17.14;74.26
64521;BME280;50896;46.714;17.322;2023-10-09T10:42:58;100859.44;;;17.18;73.18
64521;BME280;50896;46.714;17.322;2023-10-09T10:45:36;100858.41;;;17.48;72.84
64521;BME280;50896;46.714;17.322;2023-10-09T10:48:06;100847.72;;;17.61;73.87
64521;BME280;50896;46.714;17.322;2023-10-09T10:50:37;100849.38;;;17.62;72.34
64521;BME280;50896;46.714;17.322;2023-10-09T10:53:22;100834.53;;;17.73;73.58
64521;BME280;50896;46.714;17.322;2023-10-09T10:58:54;100834.19;;;17.83;73.15
64521;BME280;50896;46.714;17.322;2023-10-09T11:01:31;100826.31;;;17.81;74.86
64521;BME280;50896;46.714;17.322;2023-10-09T11:04:17;100828.72;;;17.69;76.24
64521;BME280;50896;46.714;17.322;2023-10-09T11:07:01;100820.81;;;17.54;75.19
64521;BME280;50896;46.714;17.322;2023-10-09T11:10:04;100827.25;;;17.60;77.38
64521;BME280;50896;46.714;17.322;2023-10-09T11:12:43;100820.19;;;17.59;76.31
64521;BME280;50896;46.714;17.322;2023-10-09T11:15:13;100817.06;;;17.49;76.19
64521;BME280;50896;46.714;17.322;2023-10-09T11:17:58;100819.09;;;17.47;75.91
64521;BME280;50896;46.714;17.322;2023-10-09T11:20:26;100812.09;;;17.46;77.73
64521;BME280;50896;46.714;17.322;2023-10-09T11:22:59;100811.28;;;17.52;77.20
64521;BME280;50896;46.714;17.322;2023-10-09T11:25:42;100805.50;;;17.55;78.90
64521;BME280;50896;46.714;17.322;2023-10-09T11:28:34;100811.28;;;17.52;77.92
64521;BME280;50896;46.714;17.322;2023-10-09T11:31:15;100800.53;;;17.52;77.71
64521;BME280;50896;46.714;17.322;2023-10-09T11:33:51;100802.81;;;17.55;78.45
64521;BME280;50896;46.714;17.322;2023-10-09T11:36:20;100805.34;;;17.63;80.65
64521;BME280;50896;46.714;17.322;2023-10-09T11:38:58;100807.63;;;17.66;79.06
64521;BME280;50896;46.714;17.322;2023-10-09T11:41:43;100799.75;;;17.65;80.41
64521;BME280;50896;46.714;17.322;2023-10-09T11:44:11;100790.63;;;17.59;79.96
64521;BME280;50896;46.714;17.322;2023-10-09T11:47:01;100799.50;;;17.59;80.06
64521;BME280;50896;46.714;17.322;2023-10-09T11:49:58;100781.94;;;17.57;81.63
64521;BME280;50896;46.714;17.322;2023-10-09T11:52:56;100783.00;;;17.63;83.25
64521;BME280;50896;46.714;17.322;2023-10-09T11:55:36;100787.78;;;17.67;83.04
64521;BME280;50896;46.714;17.322;2023-10-09T11:58:04;100786.97;;;17.73;83.98
64521;BME280;50896;46.714;17.322;2023-10-09T12:00:31;100776.88;;;17.82;82.06
64521;BME280;50896;46.714;17.322;2023-10-09T12:03:11;100787.50;;;17.97;80.77
64521;BME280;50896;46.714;17.322;2023-10-09T12:05:40;100770.38;;;18.12;79.67
64521;BME280;50896;46.714;17.322;2023-10-09T12:08:11;100781.56;;;18.22;79.55
64521;BME280;50896;46.714;17.322;2023-10-09T12:10:41;100767.06;;;18.16;78.84
64521;BME280;50896;46.714;17.322;2023-10-09T12:13:08;100771.63;;;18.16;79.31
64521;BME280;50896;46.714;17.322;2023-10-09T12:15:34;100760.22;;;18.00;80.47
64521;BME280;50896;46.714;17.322;2023-10-09T12:18:05;100764.97;;;17.98;82.96
64521;BME280;50896;46.714;17.322;2023-10-09T12:20:38;100761.66;;;18.03;81.19
64521;BME280;50896;46.714;17.322;2023-10-09T12:23:05;100764.38;;;18.16;82.22
64521;BME280;50896;46.714;17.322;2023-10-09T12:25:33;100770.78;;;18.15;83.38
64521;BME280;50896;46.714;17.322;2023-10-09T12:28:02;100761.06;;;18.21;81.74
64521;BME280;50896;46.714;17.322;2023-10-09T12:30:29;100760.03;;;18.08;84.90
64521;BME280;50896;46.714;17.322;2023-10-09T12:32:57;100757.34;;;18.08;82.41
64521;BME280;50896;46.714;17.322;2023-10-09T12:35:25;100754.44;;;18.03;84.15
64521;BME280;50896;46.714;17.322;2023-10-09T12:37:52;100753.19;;;18.06;86.21
64521;BME280;50896;46.714;17.322;2023-10-09T12:40:22;100748.00;;;18.11;85.75
64521;BME280;50896;46.714;17.322;2023-10-09T12:42:56;100739.13;;;18.10;89.66
64521;BME280;50896;46.714;17.322;2023-10-09T12:45:25;100746.78;;;18.14;89.04
64521;BME280;50896;46.714;17.322;2023-10-09T12:47:53;100742.41;;;17.99;89.24
64521;BME280;50896;46.714;17.322;2023-10-09T12:50:26;100745.34;;;18.04;86.68
64521;BME280;50896;46.714;17.322;2023-10-09T12:52:56;100746.97;;;17.99;92.11
64521;BME280;50896;46.714;17.322;2023-10-09T12:55:28;100727.25;;;17.85;89.02
64521;BME280;50896;46.714;17.322;2023-10-09T12:58:01;100733.94;;;18.02;85.18
64521;BME280;50896;46.714;17.322;2023-10-09T13:00:37;100731.88;;;18.11;82.26
64521;BME280;50896;46.714;17.322;2023-10-09T13:03:11;100723.19;;;18.09;85.78
64521;BME280;50896;46.714;17.322;2023-10-09T13:08:20;100724.00;;;17.96;87.58
64521;BME280;50896;46.714;17.322;2023-10-09T13:10:51;100728.31;;;17.97;87.19
64521;BME280;50896;46.714;17.322;2023-10-09T13:13:28;100724.22;;;17.95;91.80
64521;BME280;50896;46.714;17.322;2023-10-09T13:16:24;100731.78;;;17.84;93.94
64521;BME280;50896;46.714;17.322;2023-10-09T13:18:54;100733.63;;;17.77;96.03
64521;BME280;50896;46.714;17.322;2023-10-09T13:21:24;100733.41;;;17.79;97.28
64521;BME280;50896;46.714;17.322;2023-10-09T13:23:53;100732.13;;;17.68;98.88
64521;BME280;50896;46.714;17.322;2023-10-09T13:26:24;100724.25;;;17.53;98.90
64521;BME280;50896;46.714;17.322;2023-10-09T13:29:01;100722.41;;;17.60;98.04
64521;BME280;50896;46.714;17.322;2023-10-09T13:31:30;100725.09;;;17.60;96.88
64521;BME280;50896;46.714;17.322;2023-10-09T13:34:02;100723.84;;;17.56;97.58
64521;BME280;50896;46.714;17.322;2023-10-09T13:36:29;100711.81;;;17.52;100.00
64521;BME280;50896;46.714;17.322;2023-10-09T13:39:05;100724.44;;;17.51;100.00
64521;BME280;50896;46.714;17.322;2023-10-09T13:41:59;100718.66;;;17.54;98.78
64521;BME280;50896;46.714;17.322;2023-10-09T13:44:34;100712.03;;;17.50;99.76
64521;BME280;50896;46.714;17.322;2023-10-09T13:47:03;100723.59;;;17.51;100.00